sensor_id;sensor_type;location;lat;lon;timestamp;pressure;altitude;pressure_sealevel;temperature;humidity
39843;BME280;25514;46.764;15.406;2022-08-19T00:01:23;96487.56;;;18.71;85.04
39843;BME280;25514;46.764;15.406;2022-08-19T00:03:48;96481.34;;;18.82;82.34
39843;BME280;25514;46.764;15.406;2022-08-19T00:06:14;96469.41;;;18.96;80.09
39843;BME280;25514;46.764;15.406;2022-08-19T00:08:40;96462.44;;;19.07;79.11
39843;BME280;25514;46.764;15.406;2022-08-19T00:11:05;96459.50;;;19.21;78.34
39843;BME280;25514;46.764;15.406;2022-08-19T00:13:32;96460.03;;;19.31;77.42
39843;BME280;25514;46.764;15.406;2022-08-19T00:15:57;96465.09;;;19.33;77.42
39843;BME280;25514;46.764;15.406;2022-08-19T00:18:24;96475.19;;;19.36;76.78
39843;BME280;25514;46.764;15.406;2022-08-19T00:20:50;96479.19;;;19.35;79.01
39843;BME280;25514;46.764;15.406;2022-08-19T00:23:15;96471.81;;;19.20;80.03
39843;BME280;25514;46.764;15.406;2022-08-19T00:25:41;96454.06;;;19.01;81.28
39843;BME280;25514;46.764;15.406;2022-08-19T00:28:06;96453.03;;;18.93;81.35
39843;BME280;25514;46.764;15.406;2022-08-19T00:30:32;96449.00;;;18.94;82.11
39843;BME280;25514;46.764;15.406;2022-08-19T00:32:58;96458.31;;;18.91;82.66
39843;BME280;25514;46.764;15.406;2022-08-19T00:35:24;96460.81;;;18.89;82.47
39843;BME280;25514;46.764;15.406;2022-08-19T00:37:52;96448.03;;;18.97;80.03
39843;BME280;25514;46.764;15.406;2022-08-19T00:40:17;96445.50;;;18.99;80.34
39843;BME280;25514;46.764;15.406;2022-08-19T00:42:44;96463.75;;;18.79;82.26
39843;BME280;25514;46.764;15.406;2022-08-19T00:45:12;96470.22;;;18.71;83.10
39843;BME280;25514;46.764;15.406;2022-08-19T00:47:39;96471.94;;;18.68;83.60
39843;BME280;25514;46.764;15.406;2022-08-19T00:50:04;96474.44;;;18.66;84.03
39843;BME280;25514;46.764;15.406;2022-08-19T00:52:32;96473.47;;;18.69;81.59
39843;BME280;25514;46.764;15.406;2022-08-19T00:54:58;96464.22;;;18.78;81.07
39843;BME280;25514;46.764;15.406;2022-08-19T00:57:30;96478.78;;;18.73;82.68
39843;BME280;25514;46.764;15.406;2022-08-19T00:59:57;96476.97;;;18.64;84.15
39843;BME280;25514;46.764;15.406;2022-08-19T01:02:24;96477.63;;;18.53;85.44
39843;BME280;25514;46.764;15.406;2022-08-19T01:04:50;96496.41;;;18.43;86.56
39843;BME280;25514;46.764;15.406;2022-08-19T01:07:15;96501.94;;;18.43;86.40
39843;BME280;25514;46.764;15.406;2022-08-19T01:09:41;96492.38;;;18.44;84.74
39843;BME280;25514;46.764;15.406;2022-08-19T01:12:07;96491.06;;;18.40;86.45
39843;BME280;25514;46.764;15.406;2022-08-19T01:14:32;96499.13;;;18.38;86.73
39843;BME280;25514;46.764;15.406;2022-08-19T01:16:58;96505.69;;;18.40;84.28
39843;BME280;25514;46.764;15.406;2022-08-19T01:19:29;96488.16;;;18.49;82.83
39843;BME280;25514;46.764;15.406;2022-08-19T01:21:57;96495.03;;;18.59;81.81
39843;BME280;25514;46.764;15.406;2022-08-19T01:24:24;96493.09;;;18.71;80.59
39843;BME280;25514;46.764;15.406;2022-08-19T01:26:49;96492.66;;;18.78;80.20
39843;BME280;25514;46.764;15.406;2022-08-19T01:29:15;96459.72;;;18.80;80.66
39843;BME280;25514;46.764;15.406;2022-08-19T01:31:40;96452.84;;;18.70;80.00
39843;BME280;25514;46.764;15.406;2022-08-19T01:34:05;96457.16;;;18.77;79.91
39843;BME280;25514;46.764;15.406;2022-08-19T01:36:32;96435.38;;;18.84;79.88
39843;BME280;25514;46.764;15.406;2022-08-19T01:38:59;96408.28;;;19.00;79.33
39843;BME280;25514;46.764;15.406;2022-08-19T01:41:24;96404.31;;;19.12;78.70
39843;BME280;25514;46.764;15.406;2022-08-19T01:43:50;96402.84;;;19.22;77.53
39843;BME280;25514;46.764;15.406;2022-08-19T01:46:16;96412.91;;;19.26;77.21
39843;BME280;25514;46.764;15.406;2022-08-19T01:48:42;96432.81;;;19.24;78.08
39843;BME280;25514;46.764;15.406;2022-08-19T01:51:08;96429.50;;;19.14;78.16
39843;BME280;25514;46.764;15.406;2022-08-19T01:53:34;96431.72;;;19.10;76.50
39843;BME280;25514;46.764;15.406;2022-08-19T01:56:00;96439.53;;;19.12;76.76
39843;BME280;25514;46.764;15.406;2022-08-19T01:59:08;96449.06;;;19.05;77.37
39843;BME280;25514;46.764;15.406;2022-08-19T02:01:14;96446.25;;;18.94;77.96
39843;BME280;25514;46.764;15.406;2022-08-19T02:03:39;96443.66;;;18.84;78.55
39843;BME280;25514;46.764;15.406;2022-08-19T02:06:05;96426.19;;;18.73;79.01
39843;BME280;25514;46.764;15.406;2022-08-19T02:08:31;96425.38;;;18.66;78.79
39843;BME280;25514;46.764;15.406;2022-08-19T02:10:56;96432.69;;;18.64;78.78
39843;BME280;25514;46.764;15.406;2022-08-19T02:13:25;96435.47;;;18.69;78.16
39843;BME280;25514;46.764;15.406;2022-08-19T02:15:50;96426.97;;;18.73;77.77
39843;BME280;25514;46.764;15.406;2022-08-19T02:18:16;96430.16;;;18.66;80.04
39843;BME280;25514;46.764;15.406;2022-08-19T02:20:42;96445.25;;;18.65;79.95
39843;BME280;25514;46.764;15.406;2022-08-19T02:23:09;96446.69;;;18.55;80.41
39843;BME280;25514;46.764;15.406;2022-08-19T02:25:34;96440.28;;;18.37;81.71
39843;BME280;25514;46.764;15.406;2022-08-19T02:27:59;96441.63;;;18.21;82.67
39843;BME280;25514;46.764;15.406;2022-08-19T02:30:25;96441.03;;;18.11;83.43
39843;BME280;25514;46.764;15.406;2022-08-19T02:32:51;96447.16;;;17.95;85.37
39843;BME280;25514;46.764;15.406;2022-08-19T02:35:16;96447.84;;;17.90;86.02
39843;BME280;25514;46.764;15.406;2022-08-19T02:37:42;96455.41;;;17.89;86.98
39843;BME280;25514;46.764;15.406;2022-08-19T02:40:27;96440.13;;;17.94;86.41
39843;BME280;25514;46.764;15.406;2022-08-19T02:42:52;96439.91;;;17.98;85.39
39843;BME280;25514;46.764;15.406;2022-08-19T02:45:19;96443.16;;;17.96;85.32
39843;BME280;25514;46.764;15.406;2022-08-19T02:47:44;96444.19;;;17.99;84.00
39843;BME280;25514;46.764;15.406;2022-08-19T02:50:09;96445.19;;;18.01;83.54
39843;BME280;25514;46.764;15.406;2022-08-19T02:52:35;96442.81;;;18.14;82.09
39843;BME280;25514;46.764;15.406;2022-08-19T02:55:00;96431.13;;;18.25;81.62
39843;BME280;25514;46.764;15.406;2022-08-19T02:57:26;96431.69;;;18.35;80.29
39843;BME280;25514;46.764;15.406;2022-08-19T02:59:51;96428.75;;;18.44;80.34
39843;BME280;25514;46.764;15.406;2022-08-19T03:02:17;96435.84;;;18.51;80.99
39843;BME280;25514;46.764;15.406;2022-08-19T03:04:42;96453.22;;;18.52;81.85
39843;BME280;25514;46.764;15.406;2022-08-19T03:07:08;96447.69;;;18.52;81.42
39843;BME280;25514;46.764;15.406;2022-08-19T03:09:35;96430.34;;;18.57;80.52
39843;BME280;25514;46.764;15.406;2022-08-19T03:12:02;96433.13;;;18.57;79.95
39843;BME280;25514;46.764;15.406;2022-08-19T03:14:29;96446.22;;;18.56;81.17
39843;BME280;25514;46.764;15.406;2022-08-19T03:16:55;96468.84;;;18.55;82.11
39843;BME280;25514;46.764;15.406;2022-08-19T03:19:20;96479.34;;;18.50;82.74
39843;BME280;25514;46.764;15.406;2022-08-19T03:21:48;96479.81;;;18.43;82.73
39843;BME280;25514;46.764;15.406;2022-08-19T03:24:14;96481.22;;;18.33;83.66
39843;BME280;25514;46.764;15.406;2022-08-19T03:26:41;96498.53;;;18.28;84.44
39843;BME280;25514;46.764;15.406;2022-08-19T03:29:07;96511.53;;;18.22;85.14
39843;BME280;25514;46.764;15.406;2022-08-19T03:31:36;96528.56;;;18.14;85.27
39843;BME280;25514;46.764;15.406;2022-08-19T03:34:01;96551.16;;;18.13;84.76
39843;BME280;25514;46.764;15.406;2022-08-19T03:36:27;96579.06;;;18.15;83.76
39843;BME280;25514;46.764;15.406;2022-08-19T03:38:54;96585.56;;;18.32;82.47
39843;BME280;25514;46.764;15.406;2022-08-19T03:41:22;96583.56;;;18.33;83.69
39843;BME280;25514;46.764;15.406;2022-08-19T03:43:48;96564.09;;;18.22;84.30
39843;BME280;25514;46.764;15.406;2022-08-19T03:46:15;96540.34;;;18.15;85.26
39843;BME280;25514;46.764;15.406;2022-08-19T03:48:41;96528.81;;;18.17;84.87
39843;BME280;25514;46.764;15.406;2022-08-19T03:51:07;96539.19;;;18.22;84.85
39843;BME280;25514;46.764;15.406;2022-08-19T03:53:34;96541.66;;;18.20;85.91
39843;BME280;25514;46.764;15.406;2022-08-19T03:56:00;96535.72;;;18.27;85.56
39843;BME280;25514;46.764;15.406;2022-08-19T03:58:26;96534.53;;;18.33;85.06
39843;BME280;25514;46.764;15.406;2022-08-19T04:00:54;96525.06;;;18.40;84.44
39843;BME280;25514;46.764;15.406;2022-08-19T04:03:20;96537.19;;;18.48;84.08
39843;BME280;25514;46.764;15.406;2022-08-19T04:05:46;96540.06;;;18.60;83.31
39843;BME280;25514;46.764;15.406;2022-08-19T04:08:11;96532.81;;;18.68;82.22
39843;BME280;25514;46.764;15.406;2022-08-19T04:10:37;96526.13;;;18.75;81.89
39843;BME280;25514;46.764;15.406;2022-08-19T04:13:03;96522.13;;;18.81;81.29
39843;BME280;25514;46.764;15.406;2022-08-19T04:15:30;96504.63;;;18.90;80.67
39843;BME280;25514;46.764;15.406;2022-08-19T04:17:58;96486.00;;;18.96;80.22
39843;BME280;25514;46.764;15.406;2022-08-19T04:20:23;96480.78;;;19.04;80.04
39843;BME280;25514;46.764;15.406;2022-08-19T04:22:49;96488.63;;;19.11;79.71
39843;BME280;25514;46.764;15.406;2022-08-19T04:25:14;96486.66;;;19.17;79.43
39843;BME280;25514;46.764;15.406;2022-08-19T04:27:39;96481.91;;;19.24;79.04
39843;BME280;25514;46.764;15.406;2022-08-19T04:30:08;96485.22;;;19.28;78.59
39843;BME280;25514;46.764;15.406;2022-08-19T04:32:33;96471.88;;;19.32;77.70
39843;BME280;25514;46.764;15.406;2022-08-19T04:35:00;96477.47;;;19.37;77.51
39843;BME280;25514;46.764;15.406;2022-08-19T04:37:26;96483.03;;;19.43;76.58
39843;BME280;25514;46.764;15.406;2022-08-19T04:39:51;96489.63;;;19.51;77.19
39843;BME280;25514;46.764;15.406;2022-08-19T04:42:35;96493.91;;;19.58;76.92
39843;BME280;25514;46.764;15.406;2022-08-19T04:45:08;96499.50;;;19.64;76.83
39843;BME280;25514;46.764;15.406;2022-08-19T04:47:35;96502.78;;;19.68;77.04
39843;BME280;25514;46.764;15.406;2022-08-19T04:50:01;96501.78;;;19.71;76.42
39843;BME280;25514;46.764;15.406;2022-08-19T04:52:27;96504.06;;;19.72;76.27
39843;BME280;25514;46.764;15.406;2022-08-19T04:54:53;96509.38;;;19.76;76.62
39843;BME280;25514;46.764;15.406;2022-08-19T04:57:20;96520.25;;;19.80;76.29
39843;BME280;25514;46.764;15.406;2022-08-19T04:59:46;96538.16;;;19.84;76.52
39843;BME280;25514;46.764;15.406;2022-08-19T05:02:11;96535.66;;;19.86;76.03
39843;BME280;25514;46.764;15.406;2022-08-19T05:04:36;96552.56;;;19.88;76.00
39843;BME280;25514;46.764;15.406;2022-08-19T05:07:04;96544.50;;;19.90;75.23
39843;BME280;25514;46.764;15.406;2022-08-19T05:09:29;96540.22;;;19.95;74.63
39843;BME280;25514;46.764;15.406;2022-08-19T05:11:55;96550.81;;;19.97;75.01
39843;BME280;25514;46.764;15.406;2022-08-19T05:14:20;96567.22;;;20.00;74.69
39843;BME280;25514;46.764;15.406;2022-08-19T05:16:47;96575.78;;;20.02;74.22
39843;BME280;25514;46.764;15.406;2022-08-19T05:19:12;96572.50;;;20.04;74.61
39843;BME280;25514;46.764;15.406;2022-08-19T05:21:56;96564.47;;;20.06;73.97
39843;BME280;25514;46.764;15.406;2022-08-19T05:24:39;96559.44;;;20.10;74.81
39843;BME280;25514;46.764;15.406;2022-08-19T05:27:05;96562.47;;;20.12;74.37
39843;BME280;25514;46.764;15.406;2022-08-19T05:29:30;96563.25;;;20.18;74.51
39843;BME280;25514;46.764;15.406;2022-08-19T05:31:56;96567.31;;;20.23;73.63
39843;BME280;25514;46.764;15.406;2022-08-19T05:34:23;96563.03;;;20.27;74.51
39843;BME280;25514;46.764;15.406;2022-08-19T05:36:51;96559.50;;;20.33;74.50
39843;BME280;25514;46.764;15.406;2022-08-19T05:39:22;96570.84;;;20.35;72.71
39843;BME280;25514;46.764;15.406;2022-08-19T05:41:49;96568.88;;;20.35;72.72
39843;BME280;25514;46.764;15.406;2022-08-19T05:44:15;96572.63;;;20.38;72.70
39843;BME280;25514;46.764;15.406;2022-08-19T05:46:44;96567.34;;;20.40;72.40
39843;BME280;25514;46.764;15.406;2022-08-19T05:49:12;96562.06;;;20.42;71.43
39843;BME280;25514;46.764;15.406;2022-08-19T05:51:37;96568.13;;;20.46;71.54
39843;BME280;25514;46.764;15.406;2022-08-19T05:54:03;96557.81;;;20.52;71.62
39843;BME280;25514;46.764;15.406;2022-08-19T05:56:29;96557.03;;;20.57;71.46
39843;BME280;25514;46.764;15.406;2022-08-19T05:58:55;96559.81;;;20.63;71.26
39843;BME280;25514;46.764;15.406;2022-08-19T06:01:21;96582.09;;;20.74;71.28
39843;BME280;25514;46.764;15.406;2022-08-19T06:03:47;96579.28;;;20.80;70.19
39843;BME280;25514;46.764;15.406;2022-08-19T06:06:16;96589.16;;;20.81;69.54
39843;BME280;25514;46.764;15.406;2022-08-19T06:08:41;96583.09;;;20.82;69.46
39843;BME280;25514;46.764;15.406;2022-08-19T06:13:42;96547.50;;;20.92;69.59
39843;BME280;25514;46.764;15.406;2022-08-19T06:16:08;96545.47;;;20.98;69.26
39843;BME280;25514;46.764;15.406;2022-08-19T06:18:33;96551.53;;;21.03;68.55
39843;BME280;25514;46.764;15.406;2022-08-19T06:20:59;96538.91;;;21.13;69.20
39843;BME280;25514;46.764;15.406;2022-08-19T06:23:25;96537.66;;;21.19;68.19
39843;BME280;25514;46.764;15.406;2022-08-19T06:25:50;96537.38;;;21.23;67.55
39843;BME280;25514;46.764;15.406;2022-08-19T06:28:16;96540.16;;;21.29;67.55
39843;BME280;25514;46.764;15.406;2022-08-19T06:30:41;96548.22;;;21.32;66.79
39843;BME280;25514;46.764;15.406;2022-08-19T06:33:06;96562.13;;;21.32;66.58
39843;BME280;25514;46.764;15.406;2022-08-19T06:35:32;96570.69;;;21.34;66.49
39843;BME280;25514;46.764;15.406;2022-08-19T06:37:57;96570.69;;;21.34;66.57
39843;BME280;25514;46.764;15.406;2022-08-19T06:40:22;96594.72;;;21.32;66.54
39843;BME280;25514;46.764;15.406;2022-08-19T06:42:48;96605.84;;;21.32;67.34
39843;BME280;25514;46.764;15.406;2022-08-19T06:45:13;96621.50;;;21.29;68.24
39843;BME280;25514;46.764;15.406;2022-08-19T06:47:42;96633.88;;;21.28;70.06
39843;BME280;25514;46.764;15.406;2022-08-19T06:50:11;96634.66;;;21.29;72.57
39843;BME280;25514;46.764;15.406;2022-08-19T06:52:36;96622.00;;;21.28;74.54
39843;BME280;25514;46.764;15.406;2022-08-19T06:55:02;96611.91;;;21.25;73.43
39843;BME280;25514;46.764;15.406;2022-08-19T06:57:27;96618.97;;;21.20;72.34
39843;BME280;25514;46.764;15.406;2022-08-19T06:59:56;96621.00;;;21.19;74.21
39843;BME280;25514;46.764;15.406;2022-08-19T07:02:21;96633.63;;;21.26;75.19
39843;BME280;25514;46.764;15.406;2022-08-19T07:04:51;96628.31;;;21.28;73.78
39843;BME280;25514;46.764;15.406;2022-08-19T07:07:18;96607.88;;;21.26;74.44
39843;BME280;25514;46.764;15.406;2022-08-19T07:09:43;96589.69;;;21.30;71.91
39843;BME280;25514;46.764;15.406;2022-08-19T07:12:10;96593.19;;;21.25;71.34
39843;BME280;25514;46.764;15.406;2022-08-19T07:14:36;96585.63;;;21.20;70.92
39843;BME280;25514;46.764;15.406;2022-08-19T07:17:06;96588.41;;;21.20;70.72
39843;BME280;25514;46.764;15.406;2022-08-19T07:19:32;96602.53;;;21.22;72.08
39843;BME280;25514;46.764;15.406;2022-08-19T07:21:57;96604.81;;;21.24;72.55
39843;BME280;25514;46.764;15.406;2022-08-19T07:24:27;96613.41;;;21.20;78.32
39843;BME280;25514;46.764;15.406;2022-08-19T07:26:54;96627.31;;;21.09;78.83
39843;BME280;25514;46.764;15.406;2022-08-19T07:29:20;96609.88;;;21.03;79.25
39843;BME280;25514;46.764;15.406;2022-08-19T07:31:48;96599.00;;;20.93;77.14
39843;BME280;25514;46.764;15.406;2022-08-19T07:34:14;96604.56;;;20.82;73.67
39843;BME280;25514;46.764;15.406;2022-08-19T07:36:40;96616.69;;;20.79;75.14
39843;BME280;25514;46.764;15.406;2022-08-19T07:39:09;96629.53;;;20.76;74.99
39843;BME280;25514;46.764;15.406;2022-08-19T07:41:35;96646.94;;;20.65;74.88
39843;BME280;25514;46.764;15.406;2022-08-19T07:44:02;96662.78;;;20.59;75.43
39843;BME280;25514;46.764;15.406;2022-08-19T07:46:32;96671.84;;;20.54;76.21
39843;BME280;25514;46.764;15.406;2022-08-19T07:48:57;96676.13;;;20.50;75.65
39843;BME280;25514;46.764;15.406;2022-08-19T07:51:23;96656.66;;;20.44;76.13
39843;BME280;25514;46.764;15.406;2022-08-19T07:53:48;96653.84;;;20.33;75.38
39843;BME280;25514;46.764;15.406;2022-08-19T07:56:16;96625.06;;;20.24;75.88
39843;BME280;25514;46.764;15.406;2022-08-19T07:58:43;96603.88;;;20.21;77.63
39843;BME280;25514;46.764;15.406;2022-08-19T08:01:10;96617.47;;;20.19;78.30
39843;BME280;25514;46.764;15.406;2022-08-19T08:03:36;96612.41;;;20.12;80.96
39843;BME280;25514;46.764;15.406;2022-08-19T08:06:24;96605.09;;;20.09;81.20
39843;BME280;25514;46.764;15.406;2022-08-19T08:09:08;96575.56;;;20.11;79.54
39843;BME280;25514;46.764;15.406;2022-08-19T08:11:40;96555.94;;;20.15;79.11
39843;BME280;25514;46.764;15.406;2022-08-19T08:14:06;96558.47;;;20.19;82.59
39843;BME280;25514;46.764;15.406;2022-08-19T08:16:35;96531.75;;;20.21;79.87
39843;BME280;25514;46.764;15.406;2022-08-19T08:19:03;96550.13;;;20.19;82.67
39843;BME280;25514;46.764;15.406;2022-08-19T08:21:28;96570.84;;;20.23;84.49
39843;BME280;25514;46.764;15.406;2022-08-19T08:23:53;96581.19;;;20.28;85.47
39843;BME280;25514;46.764;15.406;2022-08-19T08:26:20;96604.16;;;20.29;82.41
39843;BME280;25514;46.764;15.406;2022-08-19T08:28:45;96600.63;;;20.34;85.52
39843;BME280;25514;46.764;15.406;2022-08-19T08:31:12;96590.56;;;20.37;85.10
39843;BME280;25514;46.764;15.406;2022-08-19T08:33:37;96585.53;;;20.46;86.05
39843;BME280;25514;46.764;15.406;2022-08-19T08:36:06;96589.34;;;20.49;83.34
39843;BME280;25514;46.764;15.406;2022-08-19T08:38:31;96592.34;;;20.57;86.49
39843;BME280;25514;46.764;15.406;2022-08-19T08:40:58;96606.81;;;20.67;86.93
39843;BME280;25514;46.764;15.406;2022-08-19T08:43:35;96605.03;;;20.75;84.22
39843;BME280;25514;46.764;15.406;2022-08-19T08:51:13;96579.31;;;20.86;84.38
39843;BME280;25514;46.764;15.406;2022-08-19T08:53:39;96586.88;;;20.91;82.10
39843;BME280;25514;46.764;15.406;2022-08-19T08:56:06;96613.41;;;20.92;80.46
39843;BME280;25514;46.764;15.406;2022-08-19T08:58:36;96611.88;;;20.91;84.01
39843;BME280;25514;46.764;15.406;2022-08-19T09:01:08;96611.66;;;20.94;85.94
39843;BME280;25514;46.764;15.406;2022-08-19T09:03:34;96582.34;;;20.93;84.44
39843;BME280;25514;46.764;15.406;2022-08-19T09:06:00;96591.69;;;21.01;86.83
39843;BME280;25514;46.764;15.406;2022-08-19T09:09:09;96561.88;;;21.08;82.26
39843;BME280;25514;46.764;15.406;2022-08-19T09:11:19;96585.38;;;21.29;82.61
39843;BME280;25514;46.764;15.406;2022-08-19T09:16:19;96601.03;;;21.66;81.61
39843;BME280;25514;46.764;15.406;2022-08-19T09:18:50;96609.81;;;21.87;80.90
39843;BME280;25514;46.764;15.406;2022-08-19T09:21:19;96606.91;;;22.16;84.18
39843;BME280;25514;46.764;15.406;2022-08-19T09:23:45;96617.50;;;22.34;84.37
39843;BME280;25514;46.764;15.406;2022-08-19T09:26:16;96620.50;;;22.48;84.24
39843;BME280;25514;46.764;15.406;2022-08-19T09:28:43;96619.47;;;22.45;78.90
39843;BME280;25514;46.764;15.406;2022-08-19T09:31:12;96618.19;;;22.52;81.70
39843;BME280;25514;46.764;15.406;2022-08-19T09:33:38;96603.78;;;22.48;79.63
39843;BME280;25514;46.764;15.406;2022-08-19T09:36:08;96558.94;;;22.51;78.01
39843;BME280;25514;46.764;15.406;2022-08-19T09:38:34;96596.75;;;22.35;76.33
39843;BME280;25514;46.764;15.406;2022-08-19T09:41:03;96596.75;;;22.35;77.34
39843;BME280;25514;46.764;15.406;2022-08-19T09:43:30;96594.16;;;22.49;79.86
39843;BME280;25514;46.764;15.406;2022-08-19T09:45:56;96608.53;;;22.58;81.33
39843;BME280;25514;46.764;15.406;2022-08-19T09:48:21;96628.00;;;22.64;81.11
39843;BME280;25514;46.764;15.406;2022-08-19T09:50:46;96632.28;;;22.65;80.24
39843;BME280;25514;46.764;15.406;2022-08-19T09:53:11;96625.75;;;22.63;80.59
39843;BME280;25514;46.764;15.406;2022-08-19T09:55:41;96614.31;;;22.66;81.13
39843;BME280;25514;46.764;15.406;2022-08-19T09:58:06;96604.38;;;22.76;81.46
39843;BME280;25514;46.764;15.406;2022-08-19T10:00:32;96613.97;;;22.81;81.82
39843;BME280;25514;46.764;15.406;2022-08-19T10:02:57;96610.66;;;22.83;77.29
39843;BME280;25514;46.764;15.406;2022-08-19T10:05:22;96594.44;;;22.87;75.20
39843;BME280;25514;46.764;15.406;2022-08-19T10:08:06;96587.00;;;22.95;70.74
39843;BME280;25514;46.764;15.406;2022-08-19T10:10:35;96605.47;;;22.98;69.95
39843;BME280;25514;46.764;15.406;2022-08-19T10:13:00;96573.75;;;23.07;74.32
39843;BME280;25514;46.764;15.406;2022-08-19T10:15:25;96554.78;;;23.05;73.55
39843;BME280;25514;46.764;15.406;2022-08-19T10:17:51;96581.94;;;22.99;71.17
39843;BME280;25514;46.764;15.406;2022-08-19T10:20:16;96590.25;;;23.05;73.14
39843;BME280;25514;46.764;15.406;2022-08-19T10:22:41;96603.84;;;23.20;75.01
39843;BME280;25514;46.764;15.406;2022-08-19T10:25:08;96605.16;;;23.43;74.82
39843;BME280;25514;46.764;15.406;2022-08-19T10:27:33;96613.09;;;23.64;69.30
39843;BME280;25514;46.764;15.406;2022-08-19T10:29:59;96623.31;;;23.80;68.41
39843;BME280;25514;46.764;15.406;2022-08-19T10:32:24;96618.09;;;23.96;70.37
39843;BME280;25514;46.764;15.406;2022-08-19T10:34:50;96616.34;;;24.17;68.22
39843;BME280;25514;46.764;15.406;2022-08-19T10:37:16;96625.19;;;24.40;69.04
39843;BME280;25514;46.764;15.406;2022-08-19T10:39:45;96607.66;;;24.40;67.00
39843;BME280;25514;46.764;15.406;2022-08-19T10:42:12;96598.69;;;24.47;67.24
39843;BME280;25514;46.764;15.406;2022-08-19T10:44:38;96601.94;;;24.51;67.46
39843;BME280;25514;46.764;15.406;2022-08-19T10:47:04;96584.34;;;24.56;66.51
39843;BME280;25514;46.764;15.406;2022-08-19T10:49:30;96555.28;;;24.46;64.79
39843;BME280;25514;46.764;15.406;2022-08-19T10:51:55;96558.91;;;24.22;65.34
39843;BME280;25514;46.764;15.406;2022-08-19T10:54:39;96531.44;;;24.07;63.93
39843;BME280;25514;46.764;15.406;2022-08-19T10:57:24;96546.97;;;24.02;65.16
39843;BME280;25514;46.764;15.406;2022-08-19T10:59:54;96572.56;;;24.07;61.54
39843;BME280;25514;46.764;15.406;2022-08-19T11:02:19;96576.56;;;24.30;63.06
39843;BME280;25514;46.764;15.406;2022-08-19T11:04:44;96586.34;;;24.62;59.75
39843;BME280;25514;46.764;15.406;2022-08-19T11:07:10;96600.06;;;24.79;58.26
39843;BME280;25514;46.764;15.406;2022-08-19T11:09:38;96569.38;;;24.92;60.47
39843;BME280;25514;46.764;15.406;2022-08-19T11:12:04;96583.72;;;25.02;61.31
39843;BME280;25514;46.764;15.406;2022-08-19T11:14:29;96596.13;;;24.87;59.69
39843;BME280;25514;46.764;15.406;2022-08-19T11:16:56;96591.81;;;24.86;62.14
39843;BME280;25514;46.764;15.406;2022-08-19T11:19:21;96601.78;;;24.82;62.06
39843;BME280;25514;46.764;15.406;2022-08-19T11:21:49;96597.63;;;24.88;61.74
39843;BME280;25514;46.764;15.406;2022-08-19T11:24:19;96591.88;;;25.00;60.70
39843;BME280;25514;46.764;15.406;2022-08-19T11:26:45;96600.41;;;25.07;60.05
39843;BME280;25514;46.764;15.406;2022-08-19T11:29:11;96585.09;;;25.27;60.17
39843;BME280;25514;46.764;15.406;2022-08-19T11:31:39;96605.91;;;25.45;59.07
39843;BME280;25514;46.764;15.406;2022-08-19T11:34:07;96593.47;;;25.73;58.12
39843;BME280;25514;46.764;15.406;2022-08-19T11:36:34;96580.66;;;26.05;55.80
39843;BME280;25514;46.764;15.406;2022-08-19T11:38:59;96576.84;;;26.42;56.38
39843;BME280;25514;46.764;15.406;2022-08-19T11:41:25;96562.34;;;26.65;53.00
39843;BME280;25514;46.764;15.406;2022-08-19T11:43:54;96566.50;;;26.85;54.62
39843;BME280;25514;46.764;15.406;2022-08-19T11:46:20;96569.69;;;26.89;54.30
39843;BME280;25514;46.764;15.406;2022-08-19T11:48:46;96568.06;;;26.72;52.71
39843;BME280;25514;46.764;15.406;2022-08-19T11:51:14;96564.44;;;26.85;53.25
39843;BME280;25514;46.764;15.406;2022-08-19T11:53:39;96561.09;;;26.87;53.40
39843;BME280;25514;46.764;15.406;2022-08-19T11:56:05;96549.06;;;27.21;52.89
39843;BME280;25514;46.764;15.406;2022-08-19T11:58:31;96542.75;;;27.49;51.66
39843;BME280;25514;46.764;15.406;2022-08-19T12:00:57;96536.47;;;27.64;49.00
39843;BME280;25514;46.764;15.406;2022-08-19T12:03:22;96531.19;;;27.89;50.22
39843;BME280;25514;46.764;15.406;2022-08-19T12:05:48;96527.72;;;28.04;48.11
39843;BME280;25514;46.764;15.406;2022-08-19T12:08:15;96527.38;;;28.15;47.97
39843;BME280;25514;46.764;15.406;2022-08-19T12:10:40;96525.19;;;28.29;47.55
39843;BME280;25514;46.764;15.406;2022-08-19T12:13:07;96531.50;;;28.59;48.22
39843;BME280;25514;46.764;15.406;2022-08-19T12:15:36;96524.72;;;28.54;46.68
39843;BME280;25514;46.764;15.406;2022-08-19T12:18:02;96524.78;;;28.77;47.65
39843;BME280;25514;46.764;15.406;2022-08-19T12:20:28;96516.00;;;29.04;47.48
39843;BME280;25514;46.764;15.406;2022-08-19T12:22:53;96517.31;;;29.34;45.85
39843;BME280;25514;46.764;15.406;2022-08-19T12:25:18;96500.75;;;29.69;46.62
39843;BME280;25514;46.764;15.406;2022-08-19T12:27:47;96502.28;;;29.54;42.97
39843;BME280;25514;46.764;15.406;2022-08-19T12:30:13;96507.09;;;29.77;42.90
39843;BME280;25514;46.764;15.406;2022-08-19T12:32:38;96510.53;;;29.52;42.66
39843;BME280;25514;46.764;15.406;2022-08-19T12:35:04;96506.72;;;29.73;43.21
39843;BME280;25514;46.764;15.406;2022-08-19T12:37:29;96505.25;;;29.80;42.50
39843;BME280;25514;46.764;15.406;2022-08-19T12:39:57;96516.13;;;29.83;43.00
39843;BME280;25514;46.764;15.406;2022-08-19T12:42:22;96520.25;;;29.82;41.78
39843;BME280;25514;46.764;15.406;2022-08-19T12:44:47;96519.91;;;29.70;42.88
39843;BME280;25514;46.764;15.406;2022-08-19T12:47:13;96517.13;;;29.47;41.97
39843;BME280;25514;46.764;15.406;2022-08-19T12:49:39;96519.56;;;29.35;42.56
39843;BME280;25514;46.764;15.406;2022-08-19T12:52:05;96513.53;;;29.54;43.79
39843;BME280;25514;46.764;15.406;2022-08-19T12:54:30;96519.88;;;29.78;43.89
39843;BME280;25514;46.764;15.406;2022-08-19T12:56:56;96523.63;;;29.88;44.20
39843;BME280;25514;46.764;15.406;2022-08-19T12:59:22;96525.88;;;29.82;45.45